Terminal Aerodrome Forecast
Issued by NWS Mt. Holly, NJ

Current Version | Previous Version | Text Only | Print | Product List | Glossary On
Versions: 1 2 3 4 5 6 7 8 9 10 11 12 13 14 15 16 17 18 19 20 21 22 23 24 25 26 27 28 29 30 31
000
FTUS41 KPHI 061704 AAC
TAFRDG
TAF AMD
KRDG 061704Z 0617/0712 03008G18KT P6SM -RA SCT012 OVC025
      TEMPO 0617/0619 2SM +TSRA BR BKN008 OVC012CB
     FM070000 05006KT 5SM BR VCSH OVC009=

USA.gov is the U.S. government's official web portal to all federal, state and local government web resources and services.